createdAt,value
2022-08-03T16:00:03.743Z,36.21
2022-08-03T16:01:03.685Z,35.41
2022-08-03T16:02:03.689Z,35.57
2022-08-03T16:03:03.740Z,35.07
2022-08-03T16:04:03.660Z,35.67
2022-08-03T16:05:03.642Z,36.19
2022-08-03T16:06:04.398Z,36.3
2022-08-03T16:07:03.648Z,36.04
2022-08-03T16:08:03.633Z,36.3
2022-08-03T16:09:03.616Z,37.2
2022-08-03T16:10:03.596Z,36.6
2022-08-03T16:11:03.580Z,36.46
2022-08-03T16:12:03.594Z,35.38
2022-08-03T16:13:03.576Z,35.77
2022-08-03T16:14:03.564Z,35.78
2022-08-03T16:15:03.600Z,35.59
2022-08-03T16:16:03.536Z,35.38
2022-08-03T16:17:03.527Z,35.38
2022-08-03T16:18:03.576Z,35.38
2022-08-03T16:19:03.519Z,35.27
2022-08-03T16:20:03.487Z,34.96
2022-08-03T16:21:04.354Z,35.05
2022-08-03T16:22:03.551Z,35.05
2022-08-03T16:23:03.498Z,34.67
2022-08-03T16:24:03.473Z,34.97
2022-08-03T16:25:03.466Z,35.48
2022-08-03T16:26:03.501Z,35.67
2022-08-03T16:27:03.427Z,35.36
2022-08-03T16:28:03.489Z,34.97
2022-08-03T16:29:03.393Z,34.45
2022-08-03T16:30:03.384Z,34.17
2022-08-03T16:31:03.377Z,34.36
2022-08-03T16:32:03.362Z,35.07
2022-08-03T16:33:03.370Z,35.19
2022-08-03T16:34:03.350Z,35.28
2022-08-03T16:35:03.332Z,35.19
2022-08-03T16:36:03.351Z,35.36
2022-08-03T16:37:03.323Z,35.57
2022-08-03T16:38:03.304Z,35.88
2022-08-03T16:39:03.314Z,35.59
2022-08-03T16:40:03.284Z,35.4
2022-08-03T16:41:03.280Z,35.19
2022-08-03T16:42:03.265Z,34.78
2022-08-03T16:43:03.257Z,34.78
2022-08-03T16:44:03.240Z,35.07
2022-08-03T16:45:03.228Z,35.09
2022-08-03T16:46:03.214Z,35.09
2022-08-03T16:47:03.212Z,35.07
2022-08-03T16:48:03.198Z,34.86
2022-08-03T16:49:03.209Z,34.77
2022-08-03T16:50:03.190Z,34.77
2022-08-03T16:51:03.169Z,35.28
2022-08-03T16:52:03.155Z,35.49
2022-08-03T16:53:03.147Z,35.78
2022-08-03T16:54:03.139Z,35.98
2022-08-03T16:55:03.147Z,35.78
2022-08-03T16:56:03.118Z,36.1
2022-08-03T16:57:03.158Z,36.3
2022-08-03T16:58:03.107Z,36.19
2022-08-03T16:59:03.108Z,35.88
2022-08-03T17:00:03.079Z,35.88
2022-08-03T17:01:03.089Z,36
2022-08-03T17:02:03.058Z,36.29
2022-08-03T17:03:03.050Z,35.77
2022-08-03T17:04:03.044Z,35.25
2022-08-03T17:05:03.132Z,34.67
2022-08-03T17:06:04.057Z,34.77
2022-08-03T17:07:03.017Z,34.47
2022-08-03T17:08:03.004Z,34.47
2022-08-03T17:09:03.000Z,34.57
2022-08-03T17:10:02.980Z,34.38
2022-08-03T17:11:02.973Z,34.67
2022-08-03T17:12:02.961Z,34.38
2022-08-03T17:13:02.966Z,34.47
2022-08-03T17:14:02.933Z,34.57
2022-08-03T17:15:02.928Z,34.78
2022-08-03T17:16:02.945Z,34.78
2022-08-03T17:17:02.902Z,34.86
2022-08-03T17:18:02.898Z,34.77
2022-08-03T17:19:02.882Z,35.28
2022-08-03T17:20:02.873Z,35.8
2022-08-03T17:21:02.919Z,36.02
2022-08-03T17:22:02.893Z,36.02
2022-08-03T17:23:02.840Z,36.42
2022-08-03T17:24:02.841Z,37.14
2022-08-03T17:25:02.826Z,37.34
2022-08-03T17:26:02.813Z,37.35
2022-08-03T17:27:02.819Z,37.34
2022-08-03T17:28:02.800Z,37.34
2022-08-03T17:29:02.789Z,37.12
2022-08-03T17:30:02.821Z,36.91
2022-08-03T17:31:02.819Z,36.4
2022-08-03T17:32:02.767Z,36.3
2022-08-03T17:33:02.759Z,36.21
2022-08-03T17:34:02.736Z,36.3
2022-08-03T17:35:02.773Z,36.52
2022-08-03T17:36:02.726Z,37.12
2022-08-03T17:37:02.701Z,37.12
2022-08-03T17:38:02.695Z,36.93
2022-08-03T17:39:02.777Z,37.34
2022-08-03T17:40:02.671Z,37.74
2022-08-03T17:41:02.658Z,37.32
2022-08-03T17:42:02.656Z,36.69
2022-08-03T17:43:02.636Z,36.79
2022-08-03T17:44:02.629Z,36
2022-08-03T17:45:02.636Z,36.5
2022-08-03T17:46:02.613Z,36.69
2022-08-03T17:47:02.597Z,36.69
2022-08-03T17:48:02.635Z,36.89
2022-08-03T17:49:02.571Z,36.69
2022-08-03T17:50:02.579Z,37.2
2022-08-03T17:51:02.556Z,0
2022-08-03T17:52:02.544Z,0
2022-08-03T17:53:02.538Z,40.21
2022-08-03T17:54:02.540Z,38.75
2022-08-03T17:55:02.512Z,37.51
2022-08-03T17:56:02.504Z,36.99
2022-08-03T17:57:02.495Z,36.6
2022-08-03T17:58:02.482Z,36.6
2022-08-03T17:59:02.476Z,36.42
2022-08-03T18:00:02.515Z,36.91
2022-08-03T18:01:02.497Z,37.12
2022-08-03T18:02:02.450Z,37.22
2022-08-03T18:03:02.442Z,37.2
2022-08-03T18:04:02.422Z,37.01
2022-08-03T18:05:02.434Z,37.01
2022-08-03T18:06:02.398Z,36.79
2022-08-03T18:07:02.389Z,37.28
2022-08-03T18:08:02.396Z,37.49
2022-08-03T18:09:02.368Z,37.68
2022-08-03T18:10:02.358Z,37.57
2022-08-03T18:11:02.369Z,37.98
2022-08-03T18:12:02.338Z,38.19
2022-08-03T18:13:02.358Z,38.67
2022-08-03T18:14:02.324Z,38.87
2022-08-03T18:15:02.313Z,38.67
2022-08-03T18:16:02.292Z,38.46
2022-08-03T18:17:02.302Z,38.75
2022-08-03T18:18:02.305Z,38.65
2022-08-03T18:19:02.277Z,38.65
2022-08-03T18:20:02.341Z,38.54
2022-08-03T18:21:02.280Z,38.64
2022-08-03T18:22:02.241Z,38.75
2022-08-03T18:23:02.236Z,39.04
2022-08-03T18:24:02.252Z,39.34
2022-08-03T18:25:02.202Z,39.36
2022-08-03T18:26:02.215Z,39.67
2022-08-03T18:27:02.180Z,40.08
2022-08-03T18:28:02.204Z,40.47
2022-08-03T18:29:02.169Z,40.66
2022-08-03T18:30:02.151Z,40.66
2022-08-03T18:31:02.165Z,40.66
2022-08-03T18:32:02.140Z,40.75
2022-08-03T18:33:02.122Z,40.44
2022-08-03T18:34:02.116Z,40.56
2022-08-03T18:35:02.095Z,40.85
2022-08-03T18:36:02.102Z,40.97
2022-08-03T18:37:02.081Z,41.28
2022-08-03T18:38:02.065Z,41.67
2022-08-03T18:39:02.062Z,41.26
2022-08-03T18:40:02.053Z,41.26
2022-08-03T18:41:02.077Z,41.75
2022-08-03T18:42:02.055Z,41.75
2022-08-03T18:43:02.216Z,41.55
2022-08-03T18:44:02.008Z,41.55
2022-08-03T18:45:02.010Z,41.96
2022-08-03T18:46:01.992Z,0
2022-08-03T18:47:01.976Z,0
2022-08-03T18:48:01.968Z,44.82
2022-08-03T18:49:01.956Z,43.59
2022-08-03T18:50:01.957Z,42.96
2022-08-03T18:51:01.945Z,42.55
2022-08-03T18:52:01.926Z,42.33
2022-08-03T18:53:01.945Z,42.21
2022-08-03T18:54:01.897Z,42.33
2022-08-03T18:55:01.892Z,42.02
2022-08-03T18:56:01.896Z,41.9
2022-08-03T18:57:01.884Z,42.31
2022-08-03T18:58:01.910Z,42.6
2022-08-03T18:59:01.882Z,42.8
2022-08-03T19:00:01.844Z,43.11
2022-08-03T19:01:01.840Z,43.5
2022-08-03T19:02:01.835Z,43.79
2022-08-03T19:03:01.807Z,43.81
2022-08-03T19:04:01.793Z,43.89
2022-08-03T19:05:01.782Z,43.79
2022-08-03T19:06:01.873Z,43.99
2022-08-03T19:07:01.775Z,43.99
2022-08-03T19:08:01.774Z,43.77
2022-08-03T19:09:01.754Z,43.16
2022-08-03T19:10:01.734Z,43.26
2022-08-03T19:11:01.725Z,43.75
2022-08-03T19:12:01.716Z,44.38
2022-08-03T19:13:01.703Z,0
2022-08-03T19:14:01.738Z,47.24
2022-08-03T19:15:01.706Z,46.73
2022-08-03T19:16:01.671Z,47.14
2022-08-03T19:17:01.657Z,0
2022-08-03T19:18:01.682Z,0
2022-08-03T19:19:01.638Z,49.16
2022-08-03T19:20:01.645Z,48.34
2022-08-03T19:21:01.633Z,0
2022-08-03T19:22:01.635Z,50.49
2022-08-03T19:23:01.598Z,49.04
2022-08-03T19:24:01.588Z,48.02
2022-08-03T19:25:01.578Z,47.61
2022-08-03T19:26:01.570Z,47.41
2022-08-03T19:27:01.572Z,47.09
2022-08-03T19:28:01.550Z,46.78
2022-08-03T19:29:01.535Z,47
2022-08-03T19:30:01.526Z,47.29
2022-08-03T19:31:01.515Z,48
2022-08-03T19:32:01.504Z,47.39
2022-08-03T19:33:01.520Z,47.36
2022-08-03T19:34:01.481Z,47.27
2022-08-03T19:35:01.472Z,47.46
2022-08-03T19:36:01.457Z,47.56
2022-08-03T19:37:01.445Z,47.36
2022-08-03T19:38:01.451Z,48.1
2022-08-03T19:39:01.430Z,48
2022-08-03T19:40:01.433Z,47.68
2022-08-03T19:41:01.421Z,47.68
2022-08-03T19:42:01.398Z,48.1
2022-08-03T19:43:01.380Z,47.88
2022-08-03T19:44:01.382Z,47.56
2022-08-03T19:45:01.374Z,47.58
2022-08-03T19:46:01.377Z,0
2022-08-03T19:47:01.340Z,0
2022-08-03T19:48:01.362Z,50.98
2022-08-03T19:49:01.317Z,49.92
2022-08-03T19:50:01.320Z,49.41
2022-08-03T19:51:01.295Z,49.41
2022-08-03T19:52:01.289Z,49.12
2022-08-03T19:53:01.276Z,48.71
2022-08-03T19:54:01.264Z,49
2022-08-03T19:55:01.283Z,48.58
2022-08-03T19:56:01.245Z,47.88
2022-08-03T19:57:01.238Z,47.58
2022-08-03T19:58:01.221Z,47.51
2022-08-03T19:59:01.213Z,47.83
2022-08-03T20:00:01.209Z,48.54
2022-08-03T20:01:01.209Z,48.14
2022-08-03T20:02:01.176Z,48.63
2022-08-03T20:03:01.169Z,47.63
2022-08-03T20:04:01.160Z,47.73
2022-08-03T20:05:01.156Z,47.73
2022-08-03T20:06:01.137Z,47.85
2022-08-03T20:07:01.158Z,47.95
2022-08-03T20:08:01.174Z,47.85
2022-08-03T20:09:01.107Z,48.05
2022-08-03T20:10:01.097Z,47.95
2022-08-03T20:11:01.159Z,47.95
2022-08-03T20:12:01.074Z,48.34
2022-08-03T20:13:01.078Z,48.14
2022-08-03T20:14:01.079Z,48.63
2022-08-03T20:15:01.044Z,48.46
2022-08-03T20:16:01.033Z,48.75
2022-08-03T20:17:01.016Z,48.94
2022-08-03T20:18:01.017Z,48.94
2022-08-03T20:19:01.016Z,48.65
2022-08-03T20:20:00.991Z,49.46
2022-08-03T20:21:00.980Z,49.48
2022-08-03T20:22:00.969Z,49.77
2022-08-03T20:23:00.957Z,50.1
2022-08-03T20:24:00.966Z,49.97
2022-08-03T20:25:00.936Z,49.97
2022-08-03T20:26:00.940Z,50.1
2022-08-03T20:27:00.928Z,49.87
2022-08-03T20:28:00.907Z,49.99
2022-08-03T20:29:00.898Z,50.51
2022-08-03T20:30:00.897Z,50.71
2022-08-03T20:31:00.892Z,50.81
2022-08-03T20:32:00.872Z,50.81
2022-08-03T20:33:00.889Z,50.83
2022-08-03T20:34:00.856Z,51.22
2022-08-03T20:35:00.836Z,51.54
2022-08-03T20:36:00.837Z,51.96
2022-08-03T20:37:00.819Z,52.45
2022-08-03T20:38:00.819Z,52.76
2022-08-03T20:39:00.804Z,52.67
2022-08-03T20:40:00.793Z,52.35
2022-08-03T20:41:00.787Z,52.47
2022-08-03T20:42:00.800Z,52.55
2022-08-03T20:43:01.224Z,52.86
2022-08-03T20:44:00.742Z,53.06
2022-08-03T20:45:00.734Z,53.19
2022-08-03T20:46:00.747Z,53.38
2022-08-03T20:47:00.723Z,54.1
2022-08-03T20:48:00.718Z,53.97
2022-08-03T20:49:00.717Z,53.67
2022-08-03T20:50:00.681Z,53.67
2022-08-03T20:51:00.676Z,53.97
2022-08-03T20:52:00.687Z,53.26
2022-08-03T20:53:00.649Z,53.03
2022-08-03T20:54:00.657Z,52.13
2022-08-03T20:55:00.635Z,51.9
2022-08-03T20:56:00.630Z,51.59
2022-08-03T20:57:00.611Z,51.2
2022-08-03T20:58:00.600Z,50.88
2022-08-03T20:59:00.599Z,51.2
2022-08-03T21:00:00.589Z,51.1
2022-08-03T21:01:00.565Z,50.78
2022-08-03T21:02:00.580Z,51
2022-08-03T21:03:00.589Z,52.13
2022-08-03T21:04:00.554Z,53.06
2022-08-03T21:05:00.546Z,52.76
2022-08-03T21:06:00.554Z,53.48
2022-08-03T21:07:00.522Z,53.26
2022-08-03T21:08:00.521Z,52.96
2022-08-03T21:09:00.522Z,52.86
2022-08-03T21:10:00.491Z,52.96
2022-08-03T21:11:00.483Z,52.74
2022-08-03T21:12:00.486Z,52.64
2022-08-03T21:14:00.462Z,52.86
2022-08-03T21:15:00.456Z,53.06
2022-08-03T21:16:00.431Z,53.45
2022-08-03T21:17:00.421Z,53.16
2022-08-03T21:18:00.417Z,53.16
2022-08-03T21:19:00.402Z,53.48
2022-08-03T21:20:00.386Z,52.84
2022-08-03T21:21:00.389Z,53.6
2022-08-03T21:22:00.367Z,54
2022-08-03T21:23:00.372Z,54.29
2022-08-03T21:24:00.375Z,53.67
2022-08-03T21:25:00.338Z,54.52
2022-08-03T21:26:00.345Z,54.41
2022-08-03T21:27:00.362Z,54.93
2022-08-03T21:28:00.305Z,55.55
2022-08-03T21:29:00.299Z,55.43
2022-08-03T21:30:00.316Z,53.9
2022-08-03T21:31:00.274Z,53.87
2022-08-03T21:32:00.258Z,53.9
2022-08-03T21:33:00.250Z,54
2022-08-03T21:34:00.240Z,54.32
2022-08-03T21:35:00.234Z,54.29
2022-08-03T21:36:00.223Z,54.71
2022-08-03T21:37:00.212Z,54.52
2022-08-03T21:38:00.196Z,54.58
2022-08-03T21:39:00.198Z,54.39
2022-08-03T21:40:00.173Z,54.19
2022-08-03T21:41:00.167Z,54.49
2022-08-03T21:42:00.149Z,54.68
2022-08-03T21:43:00.200Z,54.07
2022-08-03T21:44:00.127Z,53.67
2022-08-03T21:45:00.129Z,53.97
2022-08-03T21:46:00.120Z,54.29
2022-08-03T21:47:00.181Z,54.58
2022-08-03T21:48:00.087Z,55
2022-08-03T21:49:00.079Z,55
2022-08-03T21:50:00.064Z,54.1
2022-08-03T21:51:00.051Z,54.1
2022-08-03T21:52:00.047Z,53.67
2022-08-03T21:53:00.037Z,54.71
2022-08-03T21:54:00.059Z,55.13
2022-08-03T21:55:00.008Z,55.94
2022-08-03T21:56:00.004Z,56.07
2022-08-03T21:56:59.990Z,56.27
2022-08-03T21:57:59.989Z,55.33
2022-08-03T21:58:59.970Z,55.26
2022-08-03T21:59:59.963Z,55.03
2022-08-03T22:00:59.968Z,54.74
2022-08-03T22:01:59.938Z,54.52
2022-08-03T22:02:59.929Z,54.41
2022-08-03T22:03:59.922Z,54.22
2022-08-03T22:04:59.903Z,54.12
2022-08-03T22:05:59.892Z,54.54
2022-08-03T22:06:59.883Z,55.55
2022-08-03T22:07:59.878Z,56.16
2022-08-03T22:08:59.874Z,56.39
2022-08-03T22:09:59.852Z,56.59
2022-08-03T22:10:59.858Z,56.79
2022-08-03T22:11:59.836Z,56.59
2022-08-03T22:12:59.817Z,56.91
2022-08-03T22:13:59.805Z,57.4
2022-08-03T22:14:59.807Z,57.73
2022-08-03T22:15:59.772Z,57.92
2022-08-03T22:16:59.766Z,58.45
2022-08-03T22:17:59.754Z,58.54
2022-08-03T22:18:59.745Z,58.22
2022-08-03T22:19:59.735Z,58.22
2022-08-03T22:20:59.784Z,58.34
2022-08-03T22:21:59.701Z,58.54
2022-08-03T22:24:19.793Z,56.27
2022-08-03T22:25:19.789Z,55.45
2022-08-03T22:26:19.797Z,54.76
2022-08-03T22:27:19.809Z,54.74
2022-08-03T22:28:19.794Z,55.06
2022-08-03T22:29:19.730Z,54.76
2022-08-03T22:30:20.614Z,54.66
2022-08-03T22:31:19.777Z,0
2022-08-03T22:32:19.700Z,0
2022-08-03T22:33:19.762Z,60.08
2022-08-03T22:34:19.762Z,57.7
2022-08-03T22:35:19.666Z,56.16
2022-08-03T22:36:19.662Z,55.03
2022-08-03T22:37:19.644Z,54.12
2022-08-03T22:38:19.634Z,53.8
2022-08-03T22:39:27.202Z,53.92
2022-08-03T22:40:19.610Z,0
2022-08-03T22:41:19.601Z,58.37
2022-08-03T22:42:19.589Z,57.33
2022-08-03T22:43:19.578Z,0
2022-08-03T22:44:19.572Z,59.69
2022-08-03T22:45:19.569Z,58.15
2022-08-03T22:46:19.557Z,57.63
2022-08-03T22:47:19.542Z,56.79
2022-08-03T22:48:19.533Z,55.77
2022-08-03T22:49:19.520Z,55.97
2022-08-03T22:50:19.512Z,55.45
2022-08-03T22:51:19.496Z,54.54
2022-08-03T22:52:19.486Z,55.18
2022-08-03T22:53:19.474Z,56.32
2022-08-03T22:54:19.464Z,56.2
2022-08-03T22:55:19.461Z,55.68
2022-08-03T22:56:19.443Z,56
2022-08-03T22:57:19.437Z,56
2022-08-03T22:58:19.436Z,56.29
2022-08-03T22:59:19.416Z,57.33
2022-08-03T23:00:19.409Z,57.23
2022-08-03T23:01:19.390Z,56.91
2022-08-03T23:02:19.387Z,56.71
2022-08-03T23:03:19.365Z,56.81
2022-08-03T23:04:19.357Z,56.07
2022-08-03T23:05:19.358Z,55.68
2022-08-03T23:06:19.335Z,56.1
2022-08-03T23:07:19.323Z,55.58
2022-08-03T23:08:19.315Z,54.83
2022-08-03T23:09:19.318Z,54.54
2022-08-03T23:10:19.293Z,54.83
2022-08-03T23:11:19.284Z,55.16
2022-08-03T23:12:19.275Z,56.2
2022-08-03T23:13:19.265Z,56.39
2022-08-03T23:14:19.256Z,56.07
2022-08-03T23:15:19.256Z,55.68
2022-08-03T23:16:19.236Z,55.48
2022-08-03T23:17:19.225Z,55.26
2022-08-03T23:18:19.207Z,55.26
2022-08-03T23:19:19.200Z,55.06
2022-08-03T23:20:19.207Z,54.54
2022-08-03T23:21:19.180Z,53.83
2022-08-03T23:22:19.171Z,53.5
2022-08-03T23:23:19.168Z,54.02
2022-08-03T23:24:19.148Z,54.25
2022-08-03T23:25:19.135Z,54.96
2022-08-03T23:26:19.125Z,55.06
2022-08-03T23:27:19.120Z,54.74
2022-08-03T23:28:19.114Z,54.44
2022-08-03T23:29:19.091Z,54.76
2022-08-03T23:30:19.084Z,56.1
2022-08-03T23:31:19.071Z,56.49
2022-08-03T23:32:19.079Z,55.87
2022-08-03T23:33:19.076Z,55.55
2022-08-03T23:34:19.041Z,55.13
2022-08-03T23:35:19.028Z,55.13
2022-08-03T23:36:19.039Z,54.32
2022-08-03T23:37:19.021Z,54.22
2022-08-03T23:38:19.040Z,53.9
2022-08-03T23:39:18.997Z,53.8
2022-08-03T23:40:18.971Z,55.85
2022-08-03T23:41:18.965Z,55.65
2022-08-03T23:42:18.965Z,54.81
2022-08-03T23:43:18.950Z,54.81
2022-08-03T23:44:18.934Z,54.41
2022-08-03T23:45:18.926Z,53.8
2022-08-03T23:46:18.926Z,54.22
2022-08-03T23:47:18.903Z,54.32
2022-08-03T23:48:18.889Z,54.74
2022-08-03T23:49:18.877Z,55.26
2022-08-03T23:50:18.870Z,55.77
2022-08-03T23:51:18.866Z,55.68
2022-08-03T23:52:18.853Z,55.58
2022-08-03T23:53:18.839Z,56.59
2022-08-03T23:54:18.822Z,56.69
2022-08-03T23:55:18.830Z,57.63
2022-08-03T23:56:18.813Z,58.67
2022-08-03T23:57:18.796Z,59.42
2022-08-03T23:58:18.791Z,60.14
2022-08-03T23:59:18.774Z,60.14
